sensor_id;sensor_type;location;lat;lon;timestamp;P1;durP1;ratioP1;P2;durP2;ratioP2
59970;SDS011;45825;45.434;9.116;2023-04-03T00:02:24;8.38;;;4.60;;
59970;SDS011;45825;45.434;9.116;2023-04-03T00:04:49;9.30;;;4.80;;
59970;SDS011;45825;45.434;9.116;2023-04-03T00:07:15;11.40;;;4.75;;
59970;SDS011;45825;45.434;9.116;2023-04-03T00:09:40;10.27;;;5.45;;
59970;SDS011;45825;45.434;9.116;2023-04-03T00:12:05;11.20;;;5.70;;
59970;SDS011;45825;45.434;9.116;2023-04-03T00:14:31;9.35;;;5.30;;
59970;SDS011;45825;45.434;9.116;2023-04-03T00:16:56;10.50;;;5.97;;
59970;SDS011;45825;45.434;9.116;2023-04-03T00:19:21;11.07;;;6.30;;
59970;SDS011;45825;45.434;9.116;2023-04-03T00:21:47;10.45;;;6.35;;
59970;SDS011;45825;45.434;9.116;2023-04-03T00:24:12;10.50;;;5.82;;
59970;SDS011;45825;45.434;9.116;2023-04-03T00:26:37;9.90;;;6.07;;
59970;SDS011;45825;45.434;9.116;2023-04-03T00:29:03;9.20;;;6.00;;
59970;SDS011;45825;45.434;9.116;2023-04-03T00:31:28;12.20;;;6.60;;
59970;SDS011;45825;45.434;9.116;2023-04-03T00:33:54;9.82;;;6.45;;
59970;SDS011;45825;45.434;9.116;2023-04-03T00:36:19;10.82;;;6.43;;
59970;SDS011;45825;45.434;9.116;2023-04-03T00:38:45;11.30;;;5.82;;
59970;SDS011;45825;45.434;9.116;2023-04-03T00:41:10;12.68;;;6.43;;
59970;SDS011;45825;45.434;9.116;2023-04-03T00:43:36;9.60;;;6.60;;
59970;SDS011;45825;45.434;9.116;2023-04-03T00:46:01;10.82;;;6.63;;
59970;SDS011;45825;45.434;9.116;2023-04-03T00:48:40;11.63;;;6.88;;
59970;SDS011;45825;45.434;9.116;2023-04-03T00:51:09;10.30;;;7.03;;
59970;SDS011;45825;45.434;9.116;2023-04-03T00:53:47;11.93;;;6.88;;
59970;SDS011;45825;45.434;9.116;2023-04-03T00:56:18;11.27;;;6.65;;
59970;SDS011;45825;45.434;9.116;2023-04-03T00:58:48;10.57;;;6.82;;
59970;SDS011;45825;45.434;9.116;2023-04-03T01:01:20;9.82;;;6.55;;
59970;SDS011;45825;45.434;9.116;2023-04-03T01:03:48;10.43;;;6.22;;
59970;SDS011;45825;45.434;9.116;2023-04-03T01:06:16;10.95;;;6.00;;
59970;SDS011;45825;45.434;9.116;2023-04-03T01:08:46;9.73;;;6.32;;
59970;SDS011;45825;45.434;9.116;2023-04-03T01:11:14;11.27;;;6.93;;
59970;SDS011;45825;45.434;9.116;2023-04-03T01:13:40;11.20;;;6.88;;
59970;SDS011;45825;45.434;9.116;2023-04-03T01:16:06;10.73;;;6.30;;
59970;SDS011;45825;45.434;9.116;2023-04-03T01:18:32;10.60;;;6.38;;
59970;SDS011;45825;45.434;9.116;2023-04-03T01:21:14;10.48;;;6.22;;
59970;SDS011;45825;45.434;9.116;2023-04-03T01:24:12;11.10;;;6.00;;
59970;SDS011;45825;45.434;9.116;2023-04-03T01:26:41;11.43;;;5.40;;
59970;SDS011;45825;45.434;9.116;2023-04-03T01:29:06;10.98;;;6.15;;
59970;SDS011;45825;45.434;9.116;2023-04-03T01:34:00;9.43;;;5.70;;
59970;SDS011;45825;45.434;9.116;2023-04-03T01:36:28;9.77;;;5.50;;
59970;SDS011;45825;45.434;9.116;2023-04-03T01:38:56;11.45;;;6.03;;
59970;SDS011;45825;45.434;9.116;2023-04-03T01:41:24;9.77;;;5.90;;
59970;SDS011;45825;45.434;9.116;2023-04-03T01:43:50;11.88;;;6.32;;
59970;SDS011;45825;45.434;9.116;2023-04-03T01:46:16;12.65;;;6.65;;
59970;SDS011;45825;45.434;9.116;2023-04-03T01:48:43;10.18;;;6.10;;
59970;SDS011;45825;45.434;9.116;2023-04-03T01:51:08;9.73;;;6.15;;
59970;SDS011;45825;45.434;9.116;2023-04-03T01:53:34;10.80;;;6.22;;
59970;SDS011;45825;45.434;9.116;2023-04-03T01:55:59;10.38;;;5.75;;
59970;SDS011;45825;45.434;9.116;2023-04-03T01:58:25;10.77;;;5.55;;
59970;SDS011;45825;45.434;9.116;2023-04-03T02:00:50;11.30;;;6.40;;
59970;SDS011;45825;45.434;9.116;2023-04-03T02:03:16;9.02;;;5.93;;
59970;SDS011;45825;45.434;9.116;2023-04-03T02:05:42;11.60;;;6.10;;
59970;SDS011;45825;45.434;9.116;2023-04-03T02:08:07;10.45;;;5.72;;
59970;SDS011;45825;45.434;9.116;2023-04-03T02:10:32;13.38;;;5.90;;
59970;SDS011;45825;45.434;9.116;2023-04-03T02:12:58;9.38;;;5.80;;
59970;SDS011;45825;45.434;9.116;2023-04-03T02:15:23;11.00;;;5.68;;
59970;SDS011;45825;45.434;9.116;2023-04-03T02:17:48;10.25;;;5.97;;
59970;SDS011;45825;45.434;9.116;2023-04-03T02:20:14;10.95;;;6.10;;
59970;SDS011;45825;45.434;9.116;2023-04-03T02:22:39;9.88;;;6.22;;
59970;SDS011;45825;45.434;9.116;2023-04-03T02:25:05;10.50;;;5.75;;
59970;SDS011;45825;45.434;9.116;2023-04-03T02:27:30;10.93;;;5.95;;
59970;SDS011;45825;45.434;9.116;2023-04-03T02:29:56;13.98;;;6.43;;
59970;SDS011;45825;45.434;9.116;2023-04-03T02:32:22;10.07;;;5.78;;
59970;SDS011;45825;45.434;9.116;2023-04-03T02:34:47;14.80;;;6.40;;
59970;SDS011;45825;45.434;9.116;2023-04-03T02:37:12;10.40;;;6.55;;
59970;SDS011;45825;45.434;9.116;2023-04-03T02:39:38;10.80;;;6.70;;
59970;SDS011;45825;45.434;9.116;2023-04-03T02:42:03;12.80;;;7.47;;
59970;SDS011;45825;45.434;9.116;2023-04-03T02:44:29;12.32;;;6.90;;
59970;SDS011;45825;45.434;9.116;2023-04-03T02:46:54;12.50;;;6.85;;
59970;SDS011;45825;45.434;9.116;2023-04-03T02:49:20;10.60;;;6.40;;
59970;SDS011;45825;45.434;9.116;2023-04-03T02:51:45;11.25;;;6.95;;
59970;SDS011;45825;45.434;9.116;2023-04-03T02:54:10;11.27;;;7.03;;
59970;SDS011;45825;45.434;9.116;2023-04-03T02:56:36;10.60;;;6.70;;
59970;SDS011;45825;45.434;9.116;2023-04-03T02:59:02;11.43;;;6.43;;
59970;SDS011;45825;45.434;9.116;2023-04-03T03:01:27;12.10;;;6.43;;
59970;SDS011;45825;45.434;9.116;2023-04-03T03:03:56;12.20;;;6.80;;
59970;SDS011;45825;45.434;9.116;2023-04-03T03:06:22;12.45;;;7.05;;
59970;SDS011;45825;45.434;9.116;2023-04-03T03:08:47;13.13;;;6.80;;
59970;SDS011;45825;45.434;9.116;2023-04-03T03:11:12;11.80;;;6.90;;
59970;SDS011;45825;45.434;9.116;2023-04-03T03:13:38;10.45;;;6.10;;
59970;SDS011;45825;45.434;9.116;2023-04-03T03:16:03;11.88;;;6.82;;
59970;SDS011;45825;45.434;9.116;2023-04-03T03:18:30;13.70;;;6.75;;
59970;SDS011;45825;45.434;9.116;2023-04-03T03:20:56;15.00;;;7.07;;
59970;SDS011;45825;45.434;9.116;2023-04-03T03:23:23;11.25;;;7.00;;
59970;SDS011;45825;45.434;9.116;2023-04-03T03:25:54;13.15;;;7.05;;
59970;SDS011;45825;45.434;9.116;2023-04-03T03:28:24;13.48;;;7.22;;
59970;SDS011;45825;45.434;9.116;2023-04-03T03:30:49;12.38;;;6.78;;
59970;SDS011;45825;45.434;9.116;2023-04-03T03:33:15;12.15;;;7.35;;
59970;SDS011;45825;45.434;9.116;2023-04-03T03:35:42;14.30;;;7.30;;
59970;SDS011;45825;45.434;9.116;2023-04-03T03:38:11;11.93;;;7.30;;
59970;SDS011;45825;45.434;9.116;2023-04-03T03:40:36;12.60;;;7.15;;
59970;SDS011;45825;45.434;9.116;2023-04-03T03:43:02;12.10;;;7.32;;
59970;SDS011;45825;45.434;9.116;2023-04-03T03:45:27;12.48;;;7.38;;
59970;SDS011;45825;45.434;9.116;2023-04-03T03:47:52;13.07;;;7.95;;
59970;SDS011;45825;45.434;9.116;2023-04-03T03:50:18;12.32;;;7.05;;
59970;SDS011;45825;45.434;9.116;2023-04-03T03:52:43;13.20;;;8.40;;
59970;SDS011;45825;45.434;9.116;2023-04-03T03:55:09;12.50;;;7.80;;
59970;SDS011;45825;45.434;9.116;2023-04-03T03:57:35;13.25;;;8.18;;
59970;SDS011;45825;45.434;9.116;2023-04-03T04:00:00;10.98;;;7.32;;
59970;SDS011;45825;45.434;9.116;2023-04-03T04:02:25;12.43;;;7.57;;
59970;SDS011;45825;45.434;9.116;2023-04-03T04:04:51;13.43;;;6.95;;
59970;SDS011;45825;45.434;9.116;2023-04-03T04:07:16;12.73;;;7.43;;
59970;SDS011;45825;45.434;9.116;2023-04-03T04:09:41;12.27;;;6.68;;
59970;SDS011;45825;45.434;9.116;2023-04-03T04:12:07;11.48;;;6.25;;
59970;SDS011;45825;45.434;9.116;2023-04-03T04:14:32;12.55;;;6.85;;
59970;SDS011;45825;45.434;9.116;2023-04-03T04:16:57;12.15;;;7.10;;
59970;SDS011;45825;45.434;9.116;2023-04-03T04:19:23;13.65;;;6.90;;
59970;SDS011;45825;45.434;9.116;2023-04-03T04:21:48;15.07;;;7.40;;
59970;SDS011;45825;45.434;9.116;2023-04-03T04:24:13;13.63;;;7.40;;
59970;SDS011;45825;45.434;9.116;2023-04-03T04:26:39;12.65;;;7.70;;
59970;SDS011;45825;45.434;9.116;2023-04-03T04:29:04;16.40;;;7.38;;
59970;SDS011;45825;45.434;9.116;2023-04-03T04:31:30;14.32;;;7.50;;
59970;SDS011;45825;45.434;9.116;2023-04-03T04:33:55;12.07;;;8.15;;
59970;SDS011;45825;45.434;9.116;2023-04-03T04:36:20;12.90;;;7.60;;
59970;SDS011;45825;45.434;9.116;2023-04-03T04:38:45;13.10;;;7.95;;
59970;SDS011;45825;45.434;9.116;2023-04-03T04:41:11;14.50;;;8.18;;
59970;SDS011;45825;45.434;9.116;2023-04-03T04:43:36;14.15;;;8.25;;
59970;SDS011;45825;45.434;9.116;2023-04-03T04:48:32;13.20;;;8.20;;
59970;SDS011;45825;45.434;9.116;2023-04-03T04:50:57;14.38;;;8.25;;
59970;SDS011;45825;45.434;9.116;2023-04-03T04:53:23;15.05;;;8.95;;
59970;SDS011;45825;45.434;9.116;2023-04-03T04:55:48;16.73;;;8.77;;
59970;SDS011;45825;45.434;9.116;2023-04-03T04:58:13;16.02;;;9.55;;
59970;SDS011;45825;45.434;9.116;2023-04-03T05:00:39;13.45;;;9.02;;
59970;SDS011;45825;45.434;9.116;2023-04-03T05:03:04;15.20;;;8.05;;
59970;SDS011;45825;45.434;9.116;2023-04-03T05:05:30;18.20;;;10.90;;
59970;SDS011;45825;45.434;9.116;2023-04-03T05:07:55;12.10;;;8.75;;
59970;SDS011;45825;45.434;9.116;2023-04-03T05:10:20;14.35;;;8.68;;
59970;SDS011;45825;45.434;9.116;2023-04-03T05:12:46;14.18;;;9.38;;
59970;SDS011;45825;45.434;9.116;2023-04-03T05:15:11;15.93;;;9.60;;
59970;SDS011;45825;45.434;9.116;2023-04-03T05:17:36;18.50;;;9.98;;
59970;SDS011;45825;45.434;9.116;2023-04-03T05:20:02;13.30;;;8.95;;
59970;SDS011;45825;45.434;9.116;2023-04-03T05:22:29;14.98;;;9.07;;
59970;SDS011;45825;45.434;9.116;2023-04-03T05:24:55;14.75;;;9.63;;
59970;SDS011;45825;45.434;9.116;2023-04-03T05:27:20;14.35;;;9.93;;
59970;SDS011;45825;45.434;9.116;2023-04-03T05:29:45;14.80;;;10.25;;
59970;SDS011;45825;45.434;9.116;2023-04-03T05:32:11;20.15;;;10.07;;
59970;SDS011;45825;45.434;9.116;2023-04-03T05:34:36;17.55;;;9.35;;
59970;SDS011;45825;45.434;9.116;2023-04-03T05:37:02;14.77;;;9.23;;
59970;SDS011;45825;45.434;9.116;2023-04-03T05:39:29;15.30;;;10.00;;
59970;SDS011;45825;45.434;9.116;2023-04-03T05:41:56;15.15;;;9.93;;
59970;SDS011;45825;45.434;9.116;2023-04-03T05:44:21;15.30;;;9.73;;
59970;SDS011;45825;45.434;9.116;2023-04-03T05:46:47;15.07;;;9.88;;
59970;SDS011;45825;45.434;9.116;2023-04-03T05:49:12;19.15;;;11.48;;
59970;SDS011;45825;45.434;9.116;2023-04-03T05:51:38;25.20;;;11.60;;
59970;SDS011;45825;45.434;9.116;2023-04-03T05:54:14;22.25;;;10.93;;
59970;SDS011;45825;45.434;9.116;2023-04-03T05:56:43;16.60;;;11.43;;
59970;SDS011;45825;45.434;9.116;2023-04-03T05:59:08;18.13;;;10.50;;
59970;SDS011;45825;45.434;9.116;2023-04-03T06:01:34;17.45;;;10.15;;
59970;SDS011;45825;45.434;9.116;2023-04-03T06:03:59;14.85;;;10.65;;
59970;SDS011;45825;45.434;9.116;2023-04-03T06:06:25;15.50;;;11.13;;
59970;SDS011;45825;45.434;9.116;2023-04-03T06:08:50;15.88;;;10.40;;
59970;SDS011;45825;45.434;9.116;2023-04-03T06:11:18;17.33;;;11.55;;
59970;SDS011;45825;45.434;9.116;2023-04-03T06:13:43;18.95;;;11.45;;
59970;SDS011;45825;45.434;9.116;2023-04-03T06:16:12;20.38;;;11.55;;
59970;SDS011;45825;45.434;9.116;2023-04-03T06:21:06;17.02;;;11.57;;
59970;SDS011;45825;45.434;9.116;2023-04-03T06:23:32;17.38;;;11.57;;
59970;SDS011;45825;45.434;9.116;2023-04-03T06:25:58;18.63;;;11.50;;
59970;SDS011;45825;45.434;9.116;2023-04-03T06:28:23;16.80;;;11.38;;
59970;SDS011;45825;45.434;9.116;2023-04-03T06:30:48;17.42;;;11.45;;
59970;SDS011;45825;45.434;9.116;2023-04-03T06:33:13;16.80;;;10.95;;
59970;SDS011;45825;45.434;9.116;2023-04-03T06:35:39;14.65;;;10.30;;
59970;SDS011;45825;45.434;9.116;2023-04-03T06:38:05;14.95;;;10.10;;
59970;SDS011;45825;45.434;9.116;2023-04-03T06:40:34;19.65;;;10.32;;
59970;SDS011;45825;45.434;9.116;2023-04-03T06:43:00;14.55;;;10.18;;
59970;SDS011;45825;45.434;9.116;2023-04-03T06:45:26;18.02;;;10.65;;
59970;SDS011;45825;45.434;9.116;2023-04-03T06:47:52;15.95;;;10.57;;
59970;SDS011;45825;45.434;9.116;2023-04-03T06:50:18;17.73;;;9.93;;
59970;SDS011;45825;45.434;9.116;2023-04-03T06:52:44;16.90;;;9.98;;
59970;SDS011;45825;45.434;9.116;2023-04-03T06:55:10;13.68;;;9.65;;
59970;SDS011;45825;45.434;9.116;2023-04-03T06:57:36;16.13;;;10.35;;
59970;SDS011;45825;45.434;9.116;2023-04-03T07:00:01;15.80;;;9.57;;
59970;SDS011;45825;45.434;9.116;2023-04-03T07:02:29;15.57;;;9.73;;
59970;SDS011;45825;45.434;9.116;2023-04-03T07:04:54;14.20;;;10.02;;
59970;SDS011;45825;45.434;9.116;2023-04-03T07:07:19;17.85;;;10.07;;
59970;SDS011;45825;45.434;9.116;2023-04-03T07:09:45;18.48;;;9.50;;
59970;SDS011;45825;45.434;9.116;2023-04-03T07:12:12;13.30;;;9.18;;
59970;SDS011;45825;45.434;9.116;2023-04-03T07:14:38;16.05;;;9.43;;
59970;SDS011;45825;45.434;9.116;2023-04-03T07:17:03;17.48;;;9.40;;
59970;SDS011;45825;45.434;9.116;2023-04-03T07:19:28;14.60;;;9.07;;
59970;SDS011;45825;45.434;9.116;2023-04-03T07:21:54;16.95;;;9.15;;
59970;SDS011;45825;45.434;9.116;2023-04-03T07:24:20;13.70;;;8.55;;
59970;SDS011;45825;45.434;9.116;2023-04-03T07:26:48;12.77;;;8.50;;
59970;SDS011;45825;45.434;9.116;2023-04-03T07:29:15;12.27;;;7.45;;
59970;SDS011;45825;45.434;9.116;2023-04-03T07:31:41;17.92;;;8.07;;
59970;SDS011;45825;45.434;9.116;2023-04-03T07:34:09;13.73;;;8.05;;
59970;SDS011;45825;45.434;9.116;2023-04-03T07:36:35;13.68;;;8.25;;
59970;SDS011;45825;45.434;9.116;2023-04-03T07:39:01;14.30;;;8.52;;
59970;SDS011;45825;45.434;9.116;2023-04-03T07:41:27;11.63;;;8.18;;
59970;SDS011;45825;45.434;9.116;2023-04-03T07:43:53;13.77;;;7.70;;
59970;SDS011;45825;45.434;9.116;2023-04-03T07:46:19;13.43;;;7.45;;
59970;SDS011;45825;45.434;9.116;2023-04-03T07:48:45;12.40;;;7.78;;
59970;SDS011;45825;45.434;9.116;2023-04-03T07:51:10;15.32;;;7.80;;
59970;SDS011;45825;45.434;9.116;2023-04-03T07:53:36;15.05;;;7.80;;
59970;SDS011;45825;45.434;9.116;2023-04-03T07:56:01;12.50;;;7.68;;
59970;SDS011;45825;45.434;9.116;2023-04-03T07:58:28;12.20;;;6.90;;
59970;SDS011;45825;45.434;9.116;2023-04-03T08:00:53;10.15;;;6.50;;
59970;SDS011;45825;45.434;9.116;2023-04-03T08:03:18;11.95;;;6.88;;
59970;SDS011;45825;45.434;9.116;2023-04-03T08:05:45;10.57;;;6.57;;
59970;SDS011;45825;45.434;9.116;2023-04-03T08:08:12;10.05;;;6.82;;
59970;SDS011;45825;45.434;9.116;2023-04-03T08:10:39;12.27;;;6.78;;
59970;SDS011;45825;45.434;9.116;2023-04-03T08:13:05;10.85;;;7.10;;
59970;SDS011;45825;45.434;9.116;2023-04-03T08:15:32;11.32;;;7.13;;
59970;SDS011;45825;45.434;9.116;2023-04-03T08:17:58;11.25;;;6.78;;
59970;SDS011;45825;45.434;9.116;2023-04-03T08:20:24;11.45;;;8.38;;
59970;SDS011;45825;45.434;9.116;2023-04-03T08:22:50;10.65;;;6.85;;
59970;SDS011;45825;45.434;9.116;2023-04-03T08:25:16;11.15;;;7.20;;
59970;SDS011;45825;45.434;9.116;2023-04-03T08:27:42;22.52;;;8.25;;
59970;SDS011;45825;45.434;9.116;2023-04-03T08:30:07;14.85;;;7.85;;
59970;SDS011;45825;45.434;9.116;2023-04-03T08:32:34;11.55;;;7.78;;
59970;SDS011;45825;45.434;9.116;2023-04-03T08:35:00;12.27;;;7.03;;
59970;SDS011;45825;45.434;9.116;2023-04-03T08:37:26;14.70;;;8.10;;
59970;SDS011;45825;45.434;9.116;2023-04-03T08:39:51;13.35;;;7.55;;
59970;SDS011;45825;45.434;9.116;2023-04-03T08:45:14;12.15;;;7.75;;
59970;SDS011;45825;45.434;9.116;2023-04-03T08:50:18;11.40;;;7.50;;
59970;SDS011;45825;45.434;9.116;2023-04-03T08:52:47;15.88;;;8.25;;
59970;SDS011;45825;45.434;9.116;2023-04-03T08:58:02;12.93;;;7.25;;
59970;SDS011;45825;45.434;9.116;2023-04-03T09:03:19;11.43;;;7.45;;
59970;SDS011;45825;45.434;9.116;2023-04-03T09:08:22;12.25;;;7.25;;
59970;SDS011;45825;45.434;9.116;2023-04-03T09:10:59;10.38;;;7.10;;
59970;SDS011;45825;45.434;9.116;2023-04-03T09:14:01;14.50;;;7.40;;
59970;SDS011;45825;45.434;9.116;2023-04-03T09:16:58;8.93;;;6.15;;
59970;SDS011;45825;45.434;9.116;2023-04-03T09:21:57;10.52;;;7.40;;
59970;SDS011;45825;45.434;9.116;2023-04-03T09:24:23;11.77;;;8.15;;
59970;SDS011;45825;45.434;9.116;2023-04-03T09:26:59;9.70;;;7.25;;
59970;SDS011;45825;45.434;9.116;2023-04-03T09:29:30;14.25;;;8.30;;
59970;SDS011;45825;45.434;9.116;2023-04-03T09:31:57;12.25;;;7.65;;
59970;SDS011;45825;45.434;9.116;2023-04-03T09:34:32;9.85;;;7.38;;
59970;SDS011;45825;45.434;9.116;2023-04-03T09:37:01;9.82;;;6.68;;
59970;SDS011;45825;45.434;9.116;2023-04-03T09:39:33;10.32;;;6.80;;
59970;SDS011;45825;45.434;9.116;2023-04-03T09:42:16;9.93;;;6.47;;
59970;SDS011;45825;45.434;9.116;2023-04-03T09:44:56;9.25;;;6.05;;
59970;SDS011;45825;45.434;9.116;2023-04-03T09:47:24;8.80;;;5.60;;
59970;SDS011;45825;45.434;9.116;2023-04-03T09:52:38;10.18;;;5.80;;
59970;SDS011;45825;45.434;9.116;2023-04-03T09:55:27;9.38;;;5.30;;
59970;SDS011;45825;45.434;9.116;2023-04-03T09:57:53;11.50;;;5.93;;
59970;SDS011;45825;45.434;9.116;2023-04-03T10:02:49;11.18;;;6.07;;
59970;SDS011;45825;45.434;9.116;2023-04-03T10:05:32;7.90;;;5.50;;
59970;SDS011;45825;45.434;9.116;2023-04-03T10:08:34;9.75;;;6.55;;
59970;SDS011;45825;45.434;9.116;2023-04-03T10:13:55;10.20;;;6.03;;
59970;SDS011;45825;45.434;9.116;2023-04-03T10:19:35;7.90;;;5.50;;
59970;SDS011;45825;45.434;9.116;2023-04-03T10:27:18;7.03;;;4.72;;
59970;SDS011;45825;45.434;9.116;2023-04-03T10:32:32;9.95;;;5.43;;
59970;SDS011;45825;45.434;9.116;2023-04-03T10:37:59;9.60;;;5.05;;
59970;SDS011;45825;45.434;9.116;2023-04-03T10:40:43;9.40;;;4.40;;
59970;SDS011;45825;45.434;9.116;2023-04-03T10:45:56;6.18;;;3.47;;
59970;SDS011;45825;45.434;9.116;2023-04-03T10:48:32;8.15;;;3.78;;
59970;SDS011;45825;45.434;9.116;2023-04-03T10:53:43;6.63;;;3.20;;
59970;SDS011;45825;45.434;9.116;2023-04-03T10:56:19;6.03;;;3.60;;
59970;SDS011;45825;45.434;9.116;2023-04-03T10:58:56;7.82;;;3.88;;
59970;SDS011;45825;45.434;9.116;2023-04-03T11:01:30;8.13;;;3.60;;
59970;SDS011;45825;45.434;9.116;2023-04-03T11:03:58;6.22;;;3.58;;
59970;SDS011;45825;45.434;9.116;2023-04-03T11:06:28;6.65;;;3.53;;
59970;SDS011;45825;45.434;9.116;2023-04-03T11:11:29;7.30;;;3.60;;
59970;SDS011;45825;45.434;9.116;2023-04-03T11:14:01;7.28;;;3.30;;
59970;SDS011;45825;45.434;9.116;2023-04-03T11:16:31;8.23;;;3.85;;
59970;SDS011;45825;45.434;9.116;2023-04-03T11:24:00;8.98;;;3.70;;
59970;SDS011;45825;45.434;9.116;2023-04-03T11:26:30;8.30;;;3.17;;
59970;SDS011;45825;45.434;9.116;2023-04-03T11:29:03;6.07;;;3.10;;
59970;SDS011;45825;45.434;9.116;2023-04-03T11:36:55;6.72;;;3.67;;
59970;SDS011;45825;45.434;9.116;2023-04-03T11:44:38;7.00;;;3.50;;
59970;SDS011;45825;45.434;9.116;2023-04-03T11:47:04;7.80;;;3.17;;
59970;SDS011;45825;45.434;9.116;2023-04-03T11:53:40;5.70;;;3.03;;
59970;SDS011;45825;45.434;9.116;2023-04-03T11:55:52;6.15;;;3.15;;
59970;SDS011;45825;45.434;9.116;2023-04-03T11:58:28;5.85;;;2.95;;
59970;SDS011;45825;45.434;9.116;2023-04-03T12:01:00;5.90;;;3.05;;
59970;SDS011;45825;45.434;9.116;2023-04-03T12:03:30;5.50;;;2.53;;
59970;SDS011;45825;45.434;9.116;2023-04-03T12:13:38;4.53;;;2.20;;
59970;SDS011;45825;45.434;9.116;2023-04-03T12:26:46;5.55;;;2.50;;
59970;SDS011;45825;45.434;9.116;2023-04-03T12:37:16;4.57;;;2.00;;
59970;SDS011;45825;45.434;9.116;2023-04-03T12:45:58;4.10;;;2.30;;
59970;SDS011;45825;45.434;9.116;2023-04-03T12:48:27;6.53;;;2.00;;
59970;SDS011;45825;45.434;9.116;2023-04-03T12:50:56;4.90;;;2.22;;
59970;SDS011;45825;45.434;9.116;2023-04-03T12:53:24;4.65;;;2.20;;
59970;SDS011;45825;45.434;9.116;2023-04-03T12:55:55;4.22;;;2.00;;
59970;SDS011;45825;45.434;9.116;2023-04-03T12:58:43;3.58;;;2.00;;
59970;SDS011;45825;45.434;9.116;2023-04-03T13:03:37;3.78;;;2.15;;
59970;SDS011;45825;45.434;9.116;2023-04-03T13:06:05;6.68;;;2.22;;
59970;SDS011;45825;45.434;9.116;2023-04-03T13:08:31;3.20;;;2.05;;
59970;SDS011;45825;45.434;9.116;2023-04-03T13:11:07;4.32;;;2.10;;
59970;SDS011;45825;45.434;9.116;2023-04-03T13:13:35;3.38;;;1.95;;
59970;SDS011;45825;45.434;9.116;2023-04-03T13:16:09;4.28;;;1.92;;
59970;SDS011;45825;45.434;9.116;2023-04-03T13:18:36;4.30;;;1.55;;
59970;SDS011;45825;45.434;9.116;2023-04-03T13:21:13;2.45;;;1.52;;
59970;SDS011;45825;45.434;9.116;2023-04-03T13:23:42;6.53;;;1.90;;
59970;SDS011;45825;45.434;9.116;2023-04-03T13:26:11;6.13;;;1.98;;
59970;SDS011;45825;45.434;9.116;2023-04-03T13:28:41;6.28;;;2.17;;
59970;SDS011;45825;45.434;9.116;2023-04-03T13:31:14;5.15;;;1.83;;
59970;SDS011;45825;45.434;9.116;2023-04-03T13:34:05;7.38;;;2.50;;
59970;SDS011;45825;45.434;9.116;2023-04-03T13:36:37;3.50;;;1.70;;
59970;SDS011;45825;45.434;9.116;2023-04-03T13:41:38;3.88;;;1.92;;
59970;SDS011;45825;45.434;9.116;2023-04-03T13:49:34;5.03;;;1.92;;
59970;SDS011;45825;45.434;9.116;2023-04-03T13:58:01;4.00;;;1.80;;
59970;SDS011;45825;45.434;9.116;2023-04-03T14:06:19;5.13;;;1.70;;
59970;SDS011;45825;45.434;9.116;2023-04-03T14:08:45;4.05;;;1.63;;
59970;SDS011;45825;45.434;9.116;2023-04-03T14:11:15;4.47;;;1.95;;
59970;SDS011;45825;45.434;9.116;2023-04-03T14:13:43;3.05;;;1.60;;
59970;SDS011;45825;45.434;9.116;2023-04-03T14:16:21;5.20;;;1.70;;
59970;SDS011;45825;45.434;9.116;2023-04-03T14:18:49;3.85;;;1.65;;
59970;SDS011;45825;45.434;9.116;2023-04-03T14:21:16;9.73;;;1.92;;
59970;SDS011;45825;45.434;9.116;2023-04-03T14:23:43;2.92;;;1.83;;
59970;SDS011;45825;45.434;9.116;2023-04-03T14:26:10;6.28;;;1.88;;
59970;SDS011;45825;45.434;9.116;2023-04-03T14:28:38;4.35;;;2.10;;
59970;SDS011;45825;45.434;9.116;2023-04-03T14:31:05;3.72;;;1.85;;
59970;SDS011;45825;45.434;9.116;2023-04-03T14:33:31;4.75;;;2.00;;
59970;SDS011;45825;45.434;9.116;2023-04-03T14:36:00;5.15;;;1.90;;
59970;SDS011;45825;45.434;9.116;2023-04-03T14:38:28;6.85;;;2.00;;
59970;SDS011;45825;45.434;9.116;2023-04-03T14:40:55;6.03;;;2.10;;
59970;SDS011;45825;45.434;9.116;2023-04-03T14:43:21;6.15;;;2.13;;
59970;SDS011;45825;45.434;9.116;2023-04-03T14:45:47;5.57;;;2.20;;
59970;SDS011;45825;45.434;9.116;2023-04-03T14:48:18;3.40;;;1.88;;
59970;SDS011;45825;45.434;9.116;2023-04-03T14:50:45;4.50;;;2.25;;
59970;SDS011;45825;45.434;9.116;2023-04-03T14:53:11;5.78;;;2.30;;
59970;SDS011;45825;45.434;9.116;2023-04-03T14:55:39;5.25;;;2.13;;
59970;SDS011;45825;45.434;9.116;2023-04-03T14:58:08;4.53;;;2.10;;
59970;SDS011;45825;45.434;9.116;2023-04-03T15:00:38;7.90;;;2.38;;
59970;SDS011;45825;45.434;9.116;2023-04-03T15:03:03;5.18;;;2.10;;
59970;SDS011;45825;45.434;9.116;2023-04-03T15:05:28;6.32;;;2.20;;
59970;SDS011;45825;45.434;9.116;2023-04-03T15:07:54;3.70;;;1.98;;
59970;SDS011;45825;45.434;9.116;2023-04-03T15:12:47;5.78;;;2.10;;
59970;SDS011;45825;45.434;9.116;2023-04-03T15:15:14;5.30;;;2.38;;
59970;SDS011;45825;45.434;9.116;2023-04-03T15:17:41;4.95;;;2.05;;
59970;SDS011;45825;45.434;9.116;2023-04-03T15:20:12;3.63;;;2.05;;
59970;SDS011;45825;45.434;9.116;2023-04-03T15:22:42;10.00;;;2.00;;
59970;SDS011;45825;45.434;9.116;2023-04-03T15:25:08;4.97;;;2.08;;
59970;SDS011;45825;45.434;9.116;2023-04-03T15:27:33;4.53;;;2.20;;
59970;SDS011;45825;45.434;9.116;2023-04-03T15:29:59;5.63;;;2.40;;
59970;SDS011;45825;45.434;9.116;2023-04-03T15:32:25;4.63;;;2.20;;
59970;SDS011;45825;45.434;9.116;2023-04-03T15:34:50;7.50;;;2.50;;
59970;SDS011;45825;45.434;9.116;2023-04-03T15:37:19;10.65;;;2.47;;
59970;SDS011;45825;45.434;9.116;2023-04-03T15:39:44;4.88;;;2.20;;
59970;SDS011;45825;45.434;9.116;2023-04-03T15:42:09;6.78;;;2.50;;
59970;SDS011;45825;45.434;9.116;2023-04-03T15:44:35;5.03;;;2.45;;
59970;SDS011;45825;45.434;9.116;2023-04-03T15:47:00;9.30;;;2.97;;
59970;SDS011;45825;45.434;9.116;2023-04-03T15:49:26;7.38;;;2.67;;
59970;SDS011;45825;45.434;9.116;2023-04-03T15:51:51;8.07;;;3.08;;
59970;SDS011;45825;45.434;9.116;2023-04-03T15:54:17;8.52;;;2.78;;
59970;SDS011;45825;45.434;9.116;2023-04-03T15:56:42;6.63;;;2.90;;
59970;SDS011;45825;45.434;9.116;2023-04-03T15:59:08;6.03;;;2.30;;
59970;SDS011;45825;45.434;9.116;2023-04-03T16:01:33;6.13;;;2.70;;
59970;SDS011;45825;45.434;9.116;2023-04-03T16:03:59;8.77;;;2.33;;
59970;SDS011;45825;45.434;9.116;2023-04-03T16:06:25;8.07;;;2.30;;
59970;SDS011;45825;45.434;9.116;2023-04-03T16:08:51;7.55;;;2.60;;
59970;SDS011;45825;45.434;9.116;2023-04-03T16:11:16;4.40;;;2.30;;
59970;SDS011;45825;45.434;9.116;2023-04-03T16:13:42;7.93;;;2.45;;
59970;SDS011;45825;45.434;9.116;2023-04-03T16:16:07;7.45;;;2.90;;
59970;SDS011;45825;45.434;9.116;2023-04-03T16:18:33;6.80;;;2.28;;
59970;SDS011;45825;45.434;9.116;2023-04-03T16:21:00;4.05;;;2.10;;
59970;SDS011;45825;45.434;9.116;2023-04-03T16:23:25;9.10;;;2.95;;
59970;SDS011;45825;45.434;9.116;2023-04-03T16:25:51;4.80;;;2.42;;
59970;SDS011;45825;45.434;9.116;2023-04-03T16:28:17;7.32;;;2.65;;
59970;SDS011;45825;45.434;9.116;2023-04-03T16:30:43;7.05;;;2.05;;
59970;SDS011;45825;45.434;9.116;2023-04-03T16:33:10;5.97;;;2.15;;
59970;SDS011;45825;45.434;9.116;2023-04-03T16:35:37;9.68;;;2.28;;
59970;SDS011;45825;45.434;9.116;2023-04-03T16:38:03;6.60;;;2.78;;
59970;SDS011;45825;45.434;9.116;2023-04-03T16:40:28;6.00;;;2.00;;
59970;SDS011;45825;45.434;9.116;2023-04-03T16:42:54;6.35;;;2.40;;
59970;SDS011;45825;45.434;9.116;2023-04-03T16:45:19;7.95;;;2.92;;
59970;SDS011;45825;45.434;9.116;2023-04-03T16:47:45;6.80;;;2.33;;
59970;SDS011;45825;45.434;9.116;2023-04-03T16:50:10;4.15;;;2.20;;
59970;SDS011;45825;45.434;9.116;2023-04-03T16:52:36;6.45;;;2.50;;